createdAt,value
2022-08-10T00:00:21.676Z,102763.06
2022-08-10T00:01:40.208Z,102760.02
2022-08-10T00:02:43.120Z,102762.80
2022-08-10T00:03:46.447Z,102760.55
2022-08-10T00:04:49.363Z,102762.30
2022-08-10T00:05:55.046Z,102760.06
2022-08-10T00:06:58.053Z,102761.65
2022-08-10T00:08:01.016Z,102761.94
2022-08-10T00:09:04.187Z,102763.52
2022-08-10T00:10:08.042Z,102765.58
2022-08-10T00:11:15.232Z,102763.42
2022-08-10T00:12:20.028Z,102765.50
2022-08-10T00:13:26.099Z,102764.44
2022-08-10T00:14:29.071Z,102765.81
2022-08-10T00:15:52.222Z,102768.55
2022-08-10T00:16:54.908Z,102769.23
2022-08-10T00:17:57.970Z,102767.15
2022-08-10T00:19:00.969Z,102766.48
2022-08-10T00:20:08.514Z,102763.64
2022-08-10T00:21:11.984Z,102764.30
2022-08-10T00:22:16.983Z,102762.08
2022-08-10T00:23:20.633Z,102764.71
2022-08-10T00:24:24.534Z,102765.72
2022-08-10T00:25:27.520Z,102764.17
2022-08-10T00:27:51.709Z,102764.02
2022-08-10T00:28:03.710Z,102766.14
2022-08-10T00:29:09.283Z,102766.71
2022-08-10T00:30:14.945Z,102765.17
2022-08-10T00:31:17.837Z,102765.29
2022-08-10T00:32:20.757Z,102765.16
2022-08-10T00:33:24.080Z,102767.24
2022-08-10T00:34:27.907Z,102764.75
2022-08-10T00:35:30.836Z,102768.02
2022-08-10T00:36:33.744Z,102766.58
2022-08-10T00:37:36.986Z,102769.48
2022-08-10T00:38:39.867Z,102768.53
2022-08-10T00:39:42.991Z,102766.58
2022-08-10T00:40:49.696Z,102766.65
2022-08-10T00:42:06.841Z,102764.12
2022-08-10T00:43:11.038Z,102763.15
2022-08-10T00:44:14.137Z,102764.33
2022-08-10T00:45:17.232Z,102763.70
2022-08-10T00:46:20.175Z,102765.69
2022-08-10T00:47:37.121Z,102765.48
2022-08-10T00:48:40.841Z,102765.04
2022-08-10T00:49:44.217Z,102766.61
2022-08-10T00:50:47.333Z,102763.95
2022-08-10T00:51:50.212Z,102764.66
2022-08-10T00:52:53.417Z,102760.62
2022-08-10T00:53:56.363Z,102763.07
2022-08-10T00:55:00.539Z,102766.44
2022-08-10T00:57:14.130Z,102766.44
2022-08-10T00:57:26.684Z,102763.71
2022-08-10T00:58:29.976Z,102762.48
2022-08-10T00:59:33.884Z,102766.02
2022-08-10T01:00:36.837Z,102763.02
2022-08-10T01:02:09.109Z,102762.38
2022-08-10T01:03:03.115Z,102761.02
2022-08-10T01:04:54.248Z,102760.26
2022-08-10T01:05:30.726Z,102760.50
2022-08-10T01:06:52.070Z,102763.20
2022-08-10T01:08:14.160Z,102760.83
2022-08-10T01:09:26.114Z,102758.61
2022-08-10T01:10:34.030Z,102758.16
2022-08-10T01:12:47.341Z,102759.54
2022-08-10T01:13:36.119Z,102759.54
2022-08-10T01:14:45.259Z,102761.61
2022-08-10T01:15:57.157Z,102759.30
2022-08-10T01:17:18.678Z,102758.92
2022-08-10T01:18:43.325Z,102757.63
2022-08-10T01:19:49.323Z,102755.64
2022-08-10T01:20:57.970Z,102758.59
2022-08-10T01:22:12.950Z,102755.23
2022-08-10T01:23:34.443Z,102749.83
2022-08-10T01:24:55.593Z,102755.64
2022-08-10T01:26:11.966Z,102753.67
2022-08-10T01:27:19.284Z,102753.14
2022-08-10T01:28:39.439Z,102752.94
2022-08-10T01:29:53.838Z,102745.77
2022-08-10T01:32:39.515Z,102747.69
2022-08-10T01:33:58.558Z,102748.73
2022-08-10T01:35:23.451Z,102749.23
2022-08-10T01:36:34.863Z,102744.58
2022-08-10T01:37:39.279Z,102747.20
2022-08-10T01:38:46.574Z,102744.38
2022-08-10T01:39:54.279Z,102744.08
2022-08-10T01:41:02.204Z,102739.50
2022-08-10T01:42:06.438Z,102742.73
2022-08-10T01:43:11.127Z,102744.84
2022-08-10T01:44:16.464Z,102743.59
2022-08-10T01:45:24.253Z,102742.42
2022-08-10T01:46:28.148Z,102744.91
2022-08-10T01:47:53.241Z,102743.20
2022-08-10T01:48:57.366Z,102743.68
2022-08-10T01:50:05.126Z,102744.76
2022-08-10T01:51:26.719Z,102748.38
2022-08-10T01:52:31.038Z,102744.46
2022-08-10T01:53:47.217Z,102745.42
2022-08-10T01:54:52.060Z,102745.70
2022-08-10T01:55:56.838Z,102744.39
2022-08-10T01:57:01.962Z,102743.19
2022-08-10T01:58:06.634Z,102744.34
2022-08-10T01:59:11.977Z,102745.45
2022-08-10T02:00:15.069Z,102743.73
2022-08-10T02:01:20.054Z,102744.78
2022-08-10T02:02:24.080Z,102740.90
2022-08-10T02:03:28.161Z,102738.81
2022-08-10T02:04:32.728Z,102740.34
2022-08-10T02:05:37.315Z,102737.06
2022-08-10T02:06:43.575Z,102736.50
2022-08-10T02:07:46.937Z,102742.11
2022-08-10T02:08:55.810Z,102741.70
2022-08-10T02:10:11.096Z,102744.40
2022-08-10T02:11:14.834Z,102745.11
2022-08-10T02:12:19.754Z,102741.74
2022-08-10T02:13:23.342Z,102743.36
2022-08-10T02:14:33.015Z,102743.39
2022-08-10T02:15:39.552Z,102742.58
2022-08-10T02:17:06.978Z,102740.58
2022-08-10T02:18:10.783Z,102742.96
2022-08-10T02:19:15.978Z,102744.23
2022-08-10T02:20:22.798Z,102745.64
2022-08-10T02:21:26.744Z,102742.63
2022-08-10T02:22:36.860Z,102742.98
2022-08-10T02:23:43.393Z,102746.35
2022-08-10T02:24:47.166Z,102745.27
2022-08-10T02:25:51.543Z,102744.30
2022-08-10T02:26:56.469Z,102743.41
2022-08-10T02:28:05.220Z,102744.54
2022-08-10T02:29:11.492Z,102746.72
2022-08-10T02:30:14.674Z,102747.21
2022-08-10T02:31:21.223Z,102747.09
2022-08-10T02:32:34.053Z,102744.96
2022-08-10T02:33:54.186Z,102747.66
2022-08-10T02:35:03.027Z,102746.59
2022-08-10T02:36:07.412Z,102747.26
2022-08-10T02:37:12.194Z,102745.59
2022-08-10T02:38:19.826Z,102750.08
2022-08-10T02:39:24.923Z,102753.95
2022-08-10T02:42:18.359Z,102755.41
2022-08-10T02:45:15.616Z,102761.10
2022-08-10T02:45:21.099Z,102763.10
2022-08-10T02:45:24.326Z,102765.29
2022-08-10T02:46:20.785Z,102765.73
2022-08-10T02:47:30.240Z,102766.73
2022-08-10T02:49:01.229Z,102767.75
2022-08-10T02:50:13.369Z,102766.46
2022-08-10T02:51:20.868Z,102769.63
2022-08-10T02:52:48.806Z,102770.13
2022-08-10T02:53:56.029Z,102769.37
2022-08-10T02:55:17.464Z,102769.95
2022-08-10T02:56:21.496Z,102772.39
2022-08-10T02:57:29.446Z,102771.05
2022-08-10T02:58:39.881Z,102766.30
2022-08-10T02:59:48.370Z,102765.76
2022-08-10T03:00:53.604Z,102767.60
2022-08-10T03:01:59.382Z,102765.05
2022-08-10T03:03:03.690Z,102765.42
2022-08-10T03:04:09.191Z,102764.64
2022-08-10T03:05:13.415Z,102764.06
2022-08-10T03:06:20.851Z,102759.91
2022-08-10T03:07:44.042Z,102762.55
2022-08-10T03:08:49.260Z,102761.39
2022-08-10T03:09:53.673Z,102761.02
2022-08-10T03:11:00.167Z,102764.29
2022-08-10T03:12:35.170Z,102763.46
2022-08-10T03:13:26.749Z,102762.39
2022-08-10T03:14:30.661Z,102762.92
2022-08-10T03:15:34.715Z,102765.10
2022-08-10T03:16:38.752Z,102764.96
2022-08-10T03:17:42.647Z,102765.83
2022-08-10T03:19:02.684Z,102765.70
2022-08-10T03:20:37.592Z,102765.48
2022-08-10T03:21:30.749Z,102766.40
2022-08-10T03:22:34.726Z,102772.63
2022-08-10T03:23:38.170Z,102777.11
2022-08-10T03:24:43.220Z,102776.02
2022-08-10T03:25:52.998Z,102776.25
2022-08-10T03:26:59.146Z,102777.41
2022-08-10T03:28:02.327Z,102773.80
2022-08-10T03:29:05.759Z,102778.83
2022-08-10T03:30:32.404Z,102777.58
2022-08-10T03:31:33.088Z,102777.32
2022-08-10T03:32:36.883Z,102775.16
2022-08-10T03:33:41.475Z,102774.91
2022-08-10T03:34:45.719Z,102773.13
2022-08-10T03:36:39.982Z,102773.25
2022-08-10T03:37:12.233Z,102776.19
2022-08-10T03:38:15.430Z,102778.82
2022-08-10T03:39:18.391Z,102780.70
2022-08-10T03:40:21.378Z,102779.81
2022-08-10T03:41:37.810Z,102784.96
2022-08-10T03:42:40.921Z,102780.85
2022-08-10T03:43:47.779Z,102783.54
2022-08-10T03:44:52.885Z,102783.94
2022-08-10T03:45:58.669Z,102785.09
2022-08-10T03:47:02.663Z,102781.80
2022-08-10T03:48:07.047Z,102780.84
2022-08-10T03:49:11.398Z,102784.48
2022-08-10T03:50:46.034Z,102782.14
2022-08-10T03:51:39.862Z,102783.46
2022-08-10T03:52:43.584Z,102783.02
2022-08-10T03:54:04.689Z,102783.39
2022-08-10T03:55:11.202Z,102782.90
2022-08-10T03:56:28.952Z,102784.64
2022-08-10T03:57:33.914Z,102782.35
2022-08-10T03:58:36.845Z,102784.43
2022-08-10T03:59:39.722Z,102786.66
2022-08-10T04:00:43.378Z,102786.26
2022-08-10T04:02:47.141Z,102785.87
2022-08-10T04:03:10.393Z,102783.54
2022-08-10T04:04:15.504Z,102783.21
2022-08-10T04:05:22.123Z,102781.11
2022-08-10T04:06:25.251Z,102785.55
2022-08-10T04:07:28.563Z,102783.43
2022-08-10T04:08:31.848Z,102779.23
2022-08-10T04:09:42.771Z,102781.95
2022-08-10T04:10:57.829Z,102783.80
2022-08-10T04:12:01.107Z,102782.46
2022-08-10T04:13:04.058Z,102783.53
2022-08-10T04:14:06.990Z,102783.28
2022-08-10T04:15:12.136Z,102782.05
2022-08-10T04:16:15.119Z,102780.53
2022-08-10T04:17:18.320Z,102781.53
2022-08-10T04:18:41.030Z,102780.45
2022-08-10T04:19:48.195Z,102781.66
2022-08-10T04:20:55.350Z,102781.17
2022-08-10T04:22:05.332Z,102783.83
2022-08-10T04:23:09.803Z,102782.42
2022-08-10T04:24:24.659Z,102783.44
2022-08-10T04:25:30.809Z,102785.95
2022-08-10T04:26:33.866Z,102787.21
2022-08-10T04:27:37.311Z,102783.84
2022-08-10T04:28:41.172Z,102780.57
2022-08-10T04:29:44.706Z,102780.42
2022-08-10T04:30:48.205Z,102780.77
2022-08-10T04:31:52.760Z,102784.31
2022-08-10T04:32:56.722Z,102782.83
2022-08-10T04:34:00.800Z,102783.02
2022-08-10T04:35:13.799Z,102780.89
2022-08-10T04:36:20.999Z,102780.81
2022-08-10T04:37:24.848Z,102779.55
2022-08-10T04:38:29.034Z,102780.32
2022-08-10T04:39:32.375Z,102784.27
2022-08-10T04:40:35.378Z,102784.20
2022-08-10T04:41:38.467Z,102784.84
2022-08-10T04:42:49.279Z,102785.44
2022-08-10T04:43:52.156Z,102785.36
2022-08-10T04:44:55.250Z,102786.88
2022-08-10T04:45:58.480Z,102790.26
2022-08-10T04:47:01.740Z,102789.21
2022-08-10T04:48:05.188Z,102788.52
2022-08-10T04:49:13.377Z,102791.20
2022-08-10T04:50:31.539Z,102789.74
2022-08-10T04:51:35.286Z,102792.09
2022-08-10T04:52:38.355Z,102793.75
2022-08-10T04:54:02.707Z,102793.69
2022-08-10T04:55:04.699Z,102792.36
2022-08-10T04:56:08.791Z,102795.24
2022-08-10T04:57:11.720Z,102797.09
2022-08-10T04:58:14.587Z,102798.13
2022-08-10T04:59:17.675Z,102797.59
2022-08-10T05:00:20.605Z,102798.14
2022-08-10T05:01:25.031Z,102797.95
2022-08-10T05:02:38.818Z,102798.19
2022-08-10T05:04:34.142Z,102799.44
2022-08-10T05:05:04.916Z,102793.73
2022-08-10T05:06:11.070Z,102794.30
2022-08-10T05:07:18.149Z,102795.33
2022-08-10T05:08:21.758Z,102795.15
2022-08-10T05:09:25.050Z,102794.34
2022-08-10T05:10:27.964Z,102797.04
2022-08-10T05:11:31.181Z,102795.73
2022-08-10T05:12:36.370Z,102796.27
2022-08-10T05:13:39.642Z,102796.91
2022-08-10T05:14:42.649Z,102795.17
2022-08-10T05:15:46.093Z,102794.93
2022-08-10T05:16:48.975Z,102794.41
2022-08-10T05:18:08.799Z,102794.31
2022-08-10T05:19:13.310Z,102790.89
2022-08-10T05:20:16.693Z,102786.83
2022-08-10T05:22:02.463Z,102786.86
2022-08-10T05:22:43.741Z,102785.70
2022-08-10T05:23:46.730Z,102789.38
2022-08-10T05:24:49.589Z,102794.27
2022-08-10T05:25:52.613Z,102794.30
2022-08-10T05:27:09.704Z,102796.33
2022-08-10T05:28:13.559Z,102795.48
2022-08-10T05:29:16.665Z,102795.63
2022-08-10T05:30:21.958Z,102795.26
2022-08-10T05:31:24.966Z,102795.39
2022-08-10T05:32:28.047Z,102798.30
2022-08-10T05:33:31.204Z,102799.98
2022-08-10T05:34:34.262Z,102802.02
2022-08-10T05:35:56.803Z,102798.66
2022-08-10T05:37:01.964Z,102801.81
2022-08-10T05:38:12.263Z,102802.45
2022-08-10T05:39:18.846Z,102799.42
2022-08-10T05:40:34.453Z,102797.98
2022-08-10T05:41:41.517Z,102796.28
2022-08-10T05:42:48.106Z,102794.02
2022-08-10T05:43:52.766Z,102793.37
2022-08-10T05:44:56.141Z,102792.35
2022-08-10T05:46:17.455Z,102795.14
2022-08-10T05:47:22.239Z,102794.36
2022-08-10T05:48:56.966Z,102792.16
2022-08-10T05:49:49.110Z,102795.55
2022-08-10T05:50:52.087Z,102794.84
2022-08-10T05:51:55.120Z,102794.52
2022-08-10T05:52:59.257Z,102792.67
2022-08-10T05:54:09.599Z,102792.64
2022-08-10T05:55:12.725Z,102795.42
2022-08-10T05:56:20.158Z,102798.65
2022-08-10T05:57:23.871Z,102797.98
2022-08-10T05:58:26.886Z,102796.26
2022-08-10T06:00:35.746Z,102799.90
2022-08-10T06:00:56.119Z,102801.82
2022-08-10T06:02:31.283Z,102806.21
2022-08-10T06:03:32.338Z,102806.05
2022-08-10T06:04:38.950Z,102802.98
2022-08-10T06:05:44.156Z,102799.27
2022-08-10T06:06:48.134Z,102800.86
2022-08-10T06:08:09.633Z,102799.76
2022-08-10T06:09:12.999Z,102794.94
2022-08-10T06:10:28.525Z,102798.36
2022-08-10T06:12:26.488Z,102796.14
2022-08-10T06:13:26.929Z,102797.12
2022-08-10T06:14:59.670Z,102796.48
2022-08-10T06:16:04.689Z,102798.63
2022-08-10T06:17:07.632Z,102798.67
2022-08-10T06:18:11.995Z,102801.02
2022-08-10T06:19:15.498Z,102796.65
2022-08-10T06:20:18.764Z,102797.15
2022-08-10T06:21:22.083Z,102798.63
2022-08-10T06:22:28.627Z,102796.45
2022-08-10T06:23:32.352Z,102794.86
2022-08-10T06:25:02.688Z,102798.72
2022-08-10T06:26:11.332Z,102796.63
2022-08-10T06:27:17.604Z,102795.48
2022-08-10T06:28:25.812Z,102793.64
2022-08-10T06:29:31.113Z,102792.51
2022-08-10T06:30:35.125Z,102793.78
2022-08-10T06:31:49.037Z,102790.67
2022-08-10T06:32:56.749Z,102797.77
2022-08-10T06:34:00.681Z,102794.68
2022-08-10T06:35:08.343Z,102792.73
2022-08-10T06:36:11.590Z,102791.73
2022-08-10T06:37:17.633Z,102791.90
2022-08-10T06:38:23.731Z,102794.55
2022-08-10T06:39:36.139Z,102794.06
2022-08-10T06:40:43.238Z,102795.63
2022-08-10T06:42:14.601Z,102795.72
2022-08-10T06:43:14.495Z,102799.69
2022-08-10T06:44:20.998Z,102798.59
2022-08-10T06:45:27.338Z,102795.69
2022-08-10T06:46:30.782Z,102796.56
2022-08-10T06:47:33.694Z,102799.36
2022-08-10T06:48:41.673Z,102796.77
2022-08-10T06:49:45.406Z,102799.81
2022-08-10T06:50:58.245Z,102800.30
2022-08-10T06:52:03.034Z,102802.18
2022-08-10T06:53:11.111Z,102804.89
2022-08-10T06:54:14.704Z,102805.27
2022-08-10T06:55:18.834Z,102805.55
2022-08-10T06:56:36.211Z,102803.13
2022-08-10T06:57:42.830Z,102804.77
2022-08-10T06:58:57.396Z,102807.31
2022-08-10T07:00:01.508Z,102807.27
2022-08-10T07:01:08.183Z,102804.42
2022-08-10T07:02:15.985Z,102804.89
2022-08-10T07:03:20.191Z,102801.02
2022-08-10T07:04:46.203Z,102805.98
2022-08-10T07:05:51.525Z,102803.17
2022-08-10T07:06:55.443Z,102800.75
2022-08-10T07:08:01.050Z,102803.61
2022-08-10T07:09:05.003Z,102805.65
2022-08-10T07:10:09.479Z,102809.34
2022-08-10T07:11:13.941Z,102809.20
2022-08-10T07:12:20.603Z,102806.86
2022-08-10T07:14:15.567Z,102808.99
2022-08-10T07:14:47.920Z,102808.27
2022-08-10T07:15:59.818Z,102810.17
2022-08-10T07:17:04.716Z,102810.70
2022-08-10T07:18:08.357Z,102809.48
2022-08-10T07:19:12.046Z,102813.27
2022-08-10T07:20:18.837Z,102811.67
2022-08-10T07:21:22.697Z,102810.44
2022-08-10T07:23:04.840Z,102809.64
2022-08-10T07:23:58.806Z,102809.59
2022-08-10T07:25:06.841Z,102808.08
2022-08-10T07:26:11.703Z,102809.43
2022-08-10T07:27:17.237Z,102808.33
2022-08-10T07:28:21.698Z,102806.45
2022-08-10T07:29:54.295Z,102810.48
2022-08-10T07:30:54.759Z,102810.31
2022-08-10T07:31:59.137Z,102812.95
2022-08-10T07:33:02.628Z,102809.20
2022-08-10T07:34:07.366Z,102814.00
2022-08-10T07:35:12.249Z,102817.21
2022-08-10T07:36:15.703Z,102811.21
2022-08-10T07:37:20.205Z,102813.38
2022-08-10T07:38:24.771Z,102814.16
2022-08-10T07:40:03.149Z,102814.58
2022-08-10T07:40:54.235Z,102816.69
2022-08-10T07:41:59.091Z,102810.57
2022-08-10T07:43:02.858Z,102814.98
2022-08-10T07:44:06.428Z,102810.52
2022-08-10T07:45:09.960Z,102813.47
2022-08-10T07:46:15.137Z,102811.40
2022-08-10T07:47:20.053Z,102811.02
2022-08-10T07:48:47.872Z,102812.30
2022-08-10T07:49:53.148Z,102812.16
2022-08-10T07:50:59.442Z,102814.47
2022-08-10T07:52:06.361Z,102819.18
2022-08-10T07:53:12.426Z,102815.09
2022-08-10T07:54:18.340Z,102811.41
2022-08-10T07:56:03.662Z,102813.58
2022-08-10T07:56:49.236Z,102812.59
2022-08-10T07:57:54.697Z,102813.88
2022-08-10T07:59:01.824Z,102815.46
2022-08-10T08:00:08.134Z,102815.52
2022-08-10T08:01:18.881Z,102813.50
2022-08-10T08:02:28.035Z,102812.36
2022-08-10T08:03:33.950Z,102812.72
2022-08-10T08:04:37.182Z,102807.84
2022-08-10T08:05:58.390Z,102812.40
2022-08-10T08:07:04.635Z,102813.30
2022-08-10T08:08:07.825Z,102815.22
2022-08-10T08:09:11.507Z,102818.50
2022-08-10T08:10:16.301Z,102815.86
2022-08-10T08:11:26.177Z,102816.77
2022-08-10T08:12:36.664Z,102816.52
2022-08-10T08:13:40.482Z,102816.44
2022-08-10T08:14:44.143Z,102817.40
2022-08-10T08:16:20.482Z,102820.35
2022-08-10T08:17:13.642Z,102818.83
2022-08-10T08:18:21.682Z,102815.42
2022-08-10T08:19:37.353Z,102812.88
2022-08-10T08:20:45.693Z,102812.91
2022-08-10T08:24:07.953Z,102812.41
2022-08-10T08:24:33.053Z,102815.86
2022-08-10T08:24:39.753Z,102813.63
2022-08-10T08:25:43.456Z,102815.91
2022-08-10T08:26:49.363Z,102813.25
2022-08-10T08:27:56.823Z,102811.08
2022-08-10T08:28:59.939Z,102807.90
2022-08-10T08:30:09.175Z,102812.83
2022-08-10T08:31:13.941Z,102809.77
2022-08-10T08:32:18.448Z,102811.94
2022-08-10T08:33:42.389Z,102812.98
2022-08-10T08:34:46.243Z,102814.31
2022-08-10T08:35:52.539Z,102811.42
2022-08-10T08:36:59.340Z,102810.64
2022-08-10T08:38:29.590Z,102807.12
2022-08-10T08:39:26.242Z,102809.77
2022-08-10T08:40:30.651Z,102810.01
2022-08-10T08:41:57.275Z,102809.30
2022-08-10T08:43:16.142Z,102808.75
2022-08-10T08:44:39.915Z,102809.10
2022-08-10T08:46:01.993Z,102807.77
2022-08-10T08:48:05.882Z,102809.02
2022-08-10T08:49:02.742Z,102807.12
2022-08-10T08:50:19.986Z,102809.71
2022-08-10T08:52:09.832Z,102813.30
2022-08-10T08:53:22.657Z,102816.19
2022-08-10T08:54:48.387Z,102813.66
2022-08-10T08:56:03.558Z,102812.11
2022-08-10T08:57:49.126Z,102807.95
2022-08-10T08:58:59.122Z,102808.54
2022-08-10T09:00:19.615Z,102807.50
2022-08-10T09:01:40.436Z,102808.59
2022-08-10T09:03:03.441Z,102808.48
2022-08-10T09:04:34.203Z,102809.33
2022-08-10T09:05:59.420Z,102806.79
2022-08-10T09:07:59.243Z,102800.38
2022-08-10T09:08:57.040Z,102805.79
2022-08-10T09:10:12.804Z,102805.88
2022-08-10T09:11:19.302Z,102804.54
2022-08-10T09:12:37.690Z,102804.62
2022-08-10T09:13:52.879Z,102799.59
2022-08-10T09:15:09.808Z,102801.08
2022-08-10T09:16:44.863Z,102799.83
2022-08-10T09:18:06.488Z,102805.26
2022-08-10T09:19:36.684Z,102804.61
2022-08-10T09:20:48.116Z,102794.86
2022-08-10T09:22:09.929Z,102796.57
2022-08-10T09:24:01.397Z,102804.52
2022-08-10T09:25:08.076Z,102804.62
2022-08-10T09:26:21.849Z,102802.49
2022-08-10T09:27:49.690Z,102802.89
2022-08-10T09:29:12.651Z,102800.51
2022-08-10T09:30:18.563Z,102805.19
2022-08-10T09:31:41.151Z,102802.66
2022-08-10T09:36:21.268Z,102797.85
2022-08-10T09:36:29.225Z,102802.66
2022-08-10T09:36:31.245Z,102804.23
2022-08-10T09:38:02.830Z,102800.78
2022-08-10T09:39:12.351Z,102798.84
2022-08-10T09:41:04.019Z,102801.02
2022-08-10T09:42:16.095Z,102800.82
2022-08-10T09:43:25.206Z,102802.54
2022-08-10T09:44:29.517Z,102804.02
2022-08-10T09:45:38.629Z,102803.71
2022-08-10T09:46:54.713Z,102806.03
2022-08-10T09:48:03.492Z,102804.94
2022-08-10T09:49:09.248Z,102801.88
2022-08-10T09:50:12.449Z,102803.56
2022-08-10T09:51:44.740Z,102807.50
2022-08-10T09:53:07.057Z,102808.02
2022-08-10T09:54:20.940Z,102806.59
2022-08-10T09:56:18.282Z,102800.63
2022-08-10T09:57:44.906Z,102798.86
2022-08-10T09:58:43.230Z,102802.66
2022-08-10T10:00:00.365Z,102798.48
2022-08-10T10:02:02.497Z,102798.63
2022-08-10T10:03:06.527Z,102802.89
2022-08-10T10:04:22.470Z,102798.23
2022-08-10T10:05:31.121Z,102793.27
2022-08-10T10:06:54.362Z,102791.58
2022-08-10T10:08:10.672Z,102791.17
2022-08-10T10:09:33.934Z,102786.94
2022-08-10T10:10:47.761Z,102788.88
2022-08-10T10:12:10.328Z,102785.14
2022-08-10T10:13:18.513Z,102788.81
2022-08-10T10:15:12.079Z,102787.77
2022-08-10T10:16:46.794Z,102780.39
2022-08-10T10:18:00.314Z,102780.88
2022-08-10T10:19:22.065Z,102787.92
2022-08-10T10:20:44.033Z,102779.86
2022-08-10T10:21:55.517Z,102778.20
2022-08-10T10:22:59.637Z,102777.38
2022-08-10T10:24:21.597Z,102776.71
2022-08-10T10:25:50.787Z,102772.86
2022-08-10T10:26:57.544Z,102776.66
2022-08-10T10:28:19.146Z,102775.30
2022-08-10T10:29:58.544Z,102774.65
2022-08-10T10:31:02.150Z,102769.21
2022-08-10T10:32:14.157Z,102772.11
2022-08-10T10:33:25.490Z,102774.30
2022-08-10T10:34:28.314Z,102771.31
2022-08-10T10:35:50.322Z,102773.36
2022-08-10T10:36:54.330Z,102770.16
2022-08-10T10:38:10.662Z,102773.30
2022-08-10T10:39:15.254Z,102767.20
2022-08-10T10:40:19.116Z,102765.89
2022-08-10T10:41:27.870Z,102767.15
2022-08-10T10:42:44.879Z,102765.62
2022-08-10T10:44:07.485Z,102769.05
2022-08-10T10:45:19.551Z,102768.97
2022-08-10T10:46:31.768Z,102767.88
2022-08-10T10:47:49.462Z,102763.70
2022-08-10T10:48:57.896Z,102762.14
2022-08-10T10:50:13.354Z,102760.84
2022-08-10T10:51:27.626Z,102762.64
2022-08-10T10:52:42.050Z,102763.06
2022-08-10T10:54:03.917Z,102764.77
2022-08-10T10:55:10.457Z,102762.27
2022-08-10T10:56:16.262Z,102765.80
2022-08-10T10:57:59.089Z,102761.77
2022-08-10T10:59:53.367Z,102769.10
2022-08-10T11:00:34.915Z,102763.91
2022-08-10T11:01:46.739Z,102766.38
2022-08-10T11:02:49.724Z,102767.33
2022-08-10T11:04:01.295Z,102770.84
2022-08-10T11:05:04.198Z,102771.02
2022-08-10T11:06:15.367Z,102765.35
2022-08-10T11:07:54.937Z,102768.23
2022-08-10T11:09:03.535Z,102765.19
2022-08-10T11:10:33.258Z,102763.75
2022-08-10T11:12:00.294Z,102765.09
2022-08-10T11:14:25.726Z,102759.84
2022-08-10T11:14:54.503Z,102757.45
2022-08-10T11:15:57.445Z,102764.42
2022-08-10T11:17:11.336Z,102763.45
2022-08-10T11:18:36.850Z,102764.94
2022-08-10T11:20:01.201Z,102768.20
2022-08-10T11:21:13.635Z,102772.34
2022-08-10T11:22:20.254Z,102773.92
2022-08-10T11:23:29.171Z,102771.25
2022-08-10T11:24:49.722Z,102772.79
2022-08-10T11:25:59.864Z,102776.03
2022-08-10T11:27:03.014Z,102777.22
2022-08-10T11:28:29.108Z,102776.73
2022-08-10T11:29:42.594Z,102773.96
2022-08-10T11:30:58.396Z,102773.02
2022-08-10T11:32:21.130Z,102771.63
2022-08-10T11:34:11.555Z,102771.23
2022-08-10T11:35:22.403Z,102775.83
2022-08-10T11:36:44.198Z,102773.48
2022-08-10T11:38:32.816Z,102779.71
2022-08-10T11:39:31.967Z,102774.75
2022-08-10T11:40:48.606Z,102773.81
2022-08-10T11:42:09.792Z,102775.77
2022-08-10T11:43:24.269Z,102766.98
2022-08-10T11:44:31.127Z,102762.96
2022-08-10T11:45:36.786Z,102767.95
2022-08-10T11:46:54.178Z,102766.79
2022-08-10T11:47:59.589Z,102762.30
2022-08-10T11:49:27.223Z,102763.68
2022-08-10T11:50:37.187Z,102761.82
2022-08-10T11:51:43.000Z,102758.30
2022-08-10T11:52:48.687Z,102759.77
2022-08-10T11:53:57.435Z,102760.25
2022-08-10T11:55:05.525Z,102759.85
2022-08-10T11:56:11.176Z,102758.45
2022-08-10T11:57:16.095Z,102760.84
2022-08-10T11:58:40.343Z,102760.04
2022-08-10T11:59:59.281Z,102758.71
2022-08-10T12:01:04.774Z,102758.08
2022-08-10T12:02:09.711Z,102756.67
2022-08-10T12:03:12.935Z,102755.63
2022-08-10T12:04:16.930Z,102755.15
2022-08-10T12:05:23.793Z,102751.25
2022-08-10T12:07:02.120Z,102745.45
2022-08-10T12:10:02.098Z,102749.96
2022-08-10T12:10:05.426Z,102750.95
2022-08-10T12:10:52.491Z,102747.95
2022-08-10T12:11:57.120Z,102746.68
2022-08-10T12:13:06.755Z,102748.89
2022-08-10T12:14:22.976Z,102745.61
2022-08-10T12:15:29.753Z,102749.39
2022-08-10T12:16:35.090Z,102746.94
2022-08-10T12:17:42.448Z,102748.66
2022-08-10T12:18:46.797Z,102749.92
2022-08-10T12:20:05.879Z,102753.98
2022-08-10T12:21:21.340Z,102751.44
2022-08-10T12:22:30.107Z,102753.05
2022-08-10T12:23:43.898Z,102750.33
2022-08-10T12:24:46.739Z,102747.65
2022-08-10T12:25:56.883Z,102748.17
2022-08-10T12:27:20.695Z,102748.06
2022-08-10T12:28:50.488Z,102746.79
2022-08-10T12:30:12.875Z,102738.99
2022-08-10T12:31:17.327Z,102740.56
2022-08-10T12:32:34.071Z,102736.36
2022-08-10T12:34:02.154Z,102739.63
2022-08-10T12:35:07.527Z,102737.04
2022-08-10T12:36:30.696Z,102740.56
2022-08-10T12:37:42.947Z,102734.35
2022-08-10T12:39:23.242Z,102731.06
2022-08-10T12:40:36.871Z,102732.98
2022-08-10T12:42:00.669Z,102730.73
2022-08-10T12:44:03.579Z,102730.38
2022-08-10T12:44:41.317Z,102728.63
2022-08-10T12:45:48.295Z,102729.77
2022-08-10T12:46:54.222Z,102734.40
2022-08-10T12:48:06.103Z,102729.50
2022-08-10T12:49:13.786Z,102730.92
2022-08-10T12:50:31.848Z,102730.75
2022-08-10T12:51:49.628Z,102727.05
2022-08-10T12:53:06.298Z,102727.55
2022-08-10T12:54:15.684Z,102720.94
2022-08-10T12:55:27.536Z,102723.76
2022-08-10T12:56:34.768Z,102724.12
2022-08-10T12:57:40.308Z,102719.89
2022-08-10T12:59:00.446Z,102720.85
2022-08-10T13:00:05.500Z,102717.59
2022-08-10T13:01:16.452Z,102719.23
2022-08-10T13:02:25.766Z,102719.02
2022-08-10T13:04:22.303Z,102720.13
2022-08-10T13:04:54.887Z,102723.41
2022-08-10T13:06:03.061Z,102721.08
2022-08-10T13:07:06.701Z,102719.43
2022-08-10T13:08:28.739Z,102717.06
2022-08-10T13:09:32.832Z,102712.38
2022-08-10T13:10:43.598Z,102709.52
2022-08-10T13:12:39.259Z,102712.26
2022-08-10T13:13:20.366Z,102711.81
2022-08-10T13:14:36.941Z,102709.27
2022-08-10T13:15:49.555Z,102709.60
2022-08-10T13:16:56.483Z,102703.20
2022-08-10T13:18:01.611Z,102697.77
2022-08-10T13:19:05.794Z,102705.23
2022-08-10T13:20:37.885Z,102701.86
2022-08-10T13:21:41.676Z,102698.59
2022-08-10T13:22:47.165Z,102697.34
2022-08-10T13:24:03.573Z,102700.89
2022-08-10T13:25:09.483Z,102698.94
2022-08-10T13:26:14.678Z,102699.60
2022-08-10T13:27:26.556Z,102698.70
2022-08-10T13:28:40.141Z,102697.85
2022-08-10T13:29:50.653Z,102691.56
2022-08-10T13:30:55.724Z,102693.15
2022-08-10T13:32:03.576Z,102692.24
2022-08-10T13:33:14.215Z,102691.92